Time;durP1;ratioP1;P1;durP2;ratioP2;P2;SDS_P1;SDS_P2;PMS_P1;PMS_P2;Temp;Humidity;BMP_temperature;BMP_pressure;BME280_temperature;BME280_humidity;BME280_pressure;Samples;Min_cycle;Max_cycle;Signal;HPM_P1;HPM_P2
2022/10/28 00:01:14;;;;;;;51.50;30.42;;;12.10;99.90;;;;;;5071771;28;20020;-75
2022/10/28 00:03:42;;;;;;;37.83;28.95;;;12.10;99.90;;;;;;5068100;28;20033;-72
2022/10/28 00:06:11;;;;;;;39.53;26.95;;;12.10;99.90;;;;;;5071937;28;20025;-72
2022/10/28 00:08:37;;;;;;;45.95;30.83;;;12.10;99.90;;;;;;5071014;28;20035;-71
2022/10/28 00:11:17;;;;;;;41.00;28.98;;;12.00;99.90;;;;;;5071582;28;20033;-72
2022/10/28 00:13:44;;;;;;;41.67;28.38;;;12.00;99.90;;;;;;5058416;28;20017;-74
2022/10/28 00:16:16;;;;;;;40.47;28.67;;;11.90;99.90;;;;;;5071405;28;20024;-72
2022/10/28 00:18:42;;;;;;;39.50;27.25;;;11.90;99.90;;;;;;5070623;28;20048;-72
2022/10/28 00:21:11;;;;;;;42.33;28.48;;;11.90;99.90;;;;;;5071076;28;20029;-73
2022/10/28 00:23:38;;;;;;;41.00;30.15;;;11.80;99.90;;;;;;5070810;28;20036;-71
2022/10/28 00:26:06;;;;;;;40.10;29.35;;;11.80;99.90;;;;;;5071279;28;20089;-72
2022/10/28 00:28:33;;;;;;;48.42;26.33;;;11.80;99.90;;;;;;5071047;28;20390;-72
2022/10/28 00:31:06;;;;;;;39.72;26.52;;;11.70;99.90;;;;;;5070753;28;20025;-72
2022/10/28 00:33:32;;;;;;;39.10;26.48;;;11.70;99.90;;;;;;5070793;28;20047;-72
2022/10/28 00:36:11;;;;;;;36.47;26.35;;;11.70;99.90;;;;;;5071195;28;20158;-74
2022/10/28 00:38:38;;;;;;;40.70;26.38;;;11.70;99.90;;;;;;5070024;28;20041;-70
2022/10/28 00:41:04;;;;;;;38.97;25.15;;;11.70;99.90;;;;;;5055347;28;20509;-71
2022/10/28 00:43:48;;;;;;;36.83;26.77;;;11.60;99.90;;;;;;5070948;28;20475;-72
2022/10/28 00:46:19;;;;;;;41.67;27.05;;;11.60;99.90;;;;;;5069093;28;20154;-72
2022/10/28 00:48:51;;;;;;;45.55;30.40;;;11.60;99.90;;;;;;5070826;28;20056;-71
2022/10/28 00:51:20;;;;;;;41.67;28.75;;;11.50;99.90;;;;;;5070928;28;20772;-72
2022/10/28 00:53:50;;;;;;;39.50;27.75;;;11.40;99.90;;;;;;5067509;28;20043;-74
2022/10/28 00:56:17;;;;;;;43.45;27.08;;;11.40;99.90;;;;;;5071046;28;20041;-72
2022/10/28 00:58:45;;;;;;;44.90;28.58;;;11.40;99.90;;;;;;5070820;28;20504;-72
2022/10/28 01:01:11;;;;;;;40.20;29.13;;;11.40;99.90;;;;;;5072113;28;21603;-73
2022/10/28 01:03:37;;;;;;;41.35;27.98;;;11.50;99.90;;;;;;5074256;28;20499;-71
2022/10/28 01:06:04;;;;;;;38.10;26.15;;;11.50;99.90;;;;;;5074664;28;20486;-74
2022/10/28 01:08:31;;;;;;;38.70;26.02;;;11.50;99.90;;;;;;5074080;28;20082;-71
2022/10/28 01:11:09;;;;;;;40.90;26.63;;;11.40;99.90;;;;;;5074452;28;20502;-70
2022/10/28 01:13:56;;;;;;;38.22;26.15;;;11.40;99.90;;;;;;5074145;28;20024;-70
2022/10/28 01:16:47;;;;;;;36.42;24.80;;;11.40;99.90;;;;;;5065981;28;20024;-71
2022/10/28 01:19:38;;;;;;;37.58;27.40;;;11.40;99.90;;;;;;5073104;28;20043;-71
2022/10/28 01:22:09;;;;;;;37.65;26.60;;;11.30;99.90;;;;;;5062532;28;20545;-73
2022/10/28 01:25:09;;;;;;;34.17;25.50;;;11.30;99.90;;;;;;5074614;28;20066;-70
2022/10/28 01:28:09;;;;;;;40.20;28.73;;;11.20;99.90;;;;;;5073763;28;20028;-70
2022/10/28 01:30:59;;;;;;;40.00;25.38;;;11.10;99.90;;;;;;5071949;28;20037;-71
2022/10/28 01:33:39;;;;;;;36.78;25.15;;;11.10;99.90;;;;;;5074397;28;20481;-70
2022/10/28 01:36:05;;;;;;;36.42;23.40;;;11.10;99.90;;;;;;5074442;28;20025;-71
2022/10/28 01:38:40;;;;;;;28.77;20.23;;;11.00;99.90;;;;;;5072799;28;20052;-69
2022/10/28 01:41:37;;;;;;;32.28;21.70;;;11.00;99.90;;;;;;5068823;28;20115;-72
2022/10/28 01:44:18;;;;;;;30.23;19.80;;;11.00;99.90;;;;;;5072484;28;20021;-75
2022/10/28 01:47:20;;;;;;;27.75;18.70;;;11.00;99.90;;;;;;5072816;28;20091;-75
2022/10/28 01:50:17;;;;;;;34.05;21.20;;;10.90;99.90;;;;;;5068180;28;20086;-70
2022/10/28 01:52:45;;;;;;;33.50;21.67;;;10.90;99.90;;;;;;5070471;28;20044;-70
2022/10/28 01:55:17;;;;;;;34.10;21.27;;;10.80;99.90;;;;;;5072066;28;20437;-74
2022/10/28 01:57:45;;;;;;;33.27;21.13;;;10.80;99.90;;;;;;5072457;28;20024;-73
2022/10/28 02:00:11;;;;;;;26.17;18.60;;;10.80;99.90;;;;;;5072523;28;20532;-72
2022/10/28 02:02:41;;;;;;;32.28;19.90;;;10.80;99.90;;;;;;5073909;28;20029;-73
2022/10/28 02:05:32;;;;;;;32.42;21.10;;;10.80;99.90;;;;;;5073864;28;20028;-71
2022/10/28 02:08:22;;;;;;;27.48;19.92;;;10.80;99.90;;;;;;5072248;28;20033;-73
2022/10/28 02:11:00;;;;;;;28.95;19.40;;;10.70;99.90;;;;;;5084990;28;20072;-71
2022/10/28 02:13:48;;;;;;;29.20;19.50;;;10.70;99.90;;;;;;5070343;28;20044;-74
2022/10/28 02:16:45;;;;;;;32.00;21.45;;;10.80;99.90;;;;;;5071169;28;20048;-71
2022/10/28 02:19:28;;;;;;;31.45;20.67;;;10.80;99.90;;;;;;5050749;28;20423;-71
2022/10/28 02:21:56;;;;;;;;;;;10.70;99.90;;;;;;5051634;28;20360;-73
2022/10/28 02:24:38;;;;;;;32.47;19.20;;;10.70;99.90;;;;;;5056930;28;20334;-72
2022/10/28 02:27:16;;;;;;;33.55;21.08;;;10.60;99.90;;;;;;5056625;28;20025;-72
2022/10/28 02:30:13;;;;;;;28.77;19.50;;;10.70;99.90;;;;;;5050584;28;20073;-72
2022/10/28 02:32:44;;;;;;;39.47;19.77;;;10.60;99.90;;;;;;5050380;28;20029;-71
2022/10/28 02:35:19;;;;;;;30.42;19.65;;;10.60;99.90;;;;;;5050915;28;20036;-73
2022/10/28 02:37:48;;;;;;;33.92;19.67;;;10.70;99.90;;;;;;5063839;28;20052;-73
2022/10/28 02:40:22;;;;;;;30.10;18.73;;;10.60;99.90;;;;;;5060829;28;20052;-70
2022/10/28 02:42:56;;;;;;;28.73;18.67;;;10.60;99.90;;;;;;5050353;28;20045;-74
2022/10/28 02:45:27;;;;;;;33.55;19.65;;;10.50;99.90;;;;;;5050735;28;20032;-75
2022/10/28 02:48:07;;;;;;;27.40;17.52;;;10.50;99.90;;;;;;5040663;28;20358;-73
2022/10/28 02:50:36;;;;;;;30.92;18.83;;;10.50;99.90;;;;;;5018139;28;20046;-72
2022/10/28 02:53:10;;;;;;;33.17;18.50;;;10.40;99.90;;;;;;5044644;28;20391;-71
2022/10/28 02:55:41;;;;;;;28.73;19.38;;;10.40;99.90;;;;;;5053035;28;20075;-75
2022/10/28 02:58:08;;;;;;;29.25;17.70;;;10.40;99.90;;;;;;5072328;28;20021;-71
2022/10/28 03:00:34;;;;;;;28.10;17.63;;;10.40;99.90;;;;;;5072839;28;20016;-72
2022/10/28 03:02:59;;;;;;;25.33;18.15;;;10.40;99.90;;;;;;5072746;28;20029;-72
2022/10/28 03:05:25;;;;;;;26.92;17.60;;;10.40;99.90;;;;;;5072512;28;20066;-72
2022/10/28 03:07:51;;;;;;;29.23;19.77;;;10.30;99.90;;;;;;5072119;28;20036;-74
2022/10/28 03:10:17;;;;;;;26.75;19.35;;;10.20;99.90;;;;;;5070482;28;20039;-71
2022/10/28 03:12:43;;;;;;;31.73;18.67;;;10.10;99.90;;;;;;5067626;28;20033;-74
2022/10/28 03:15:09;;;;;;;27.92;18.13;;;10.20;99.90;;;;;;5070868;28;20073;-73
2022/10/28 03:17:35;;;;;;;27.75;18.35;;;10.20;99.90;;;;;;5057437;28;20028;-74
2022/10/28 03:20:01;;;;;;;31.73;19.95;;;10.20;99.90;;;;;;5071772;28;20035;-73
2022/10/28 03:22:26;;;;;;;29.15;17.85;;;10.20;99.90;;;;;;5069139;28;20021;-75
2022/10/28 03:24:52;;;;;;;26.85;17.90;;;10.30;99.90;;;;;;5070498;28;20024;-72
2022/10/28 03:27:18;;;;;;;27.45;19.25;;;10.30;99.90;;;;;;5072324;28;20032;-72
2022/10/28 03:29:44;;;;;;;33.22;17.48;;;10.20;99.90;;;;;;5071731;28;20067;-70
2022/10/28 03:32:10;;;;;;;28.48;19.02;;;10.10;99.90;;;;;;5072009;28;20585;-73
2022/10/28 03:34:35;;;;;;;26.42;18.73;;;10.00;99.90;;;;;;5071767;28;20024;-72
2022/10/28 03:37:01;;;;;;;32.40;18.40;;;10.00;99.90;;;;;;5071537;28;20032;-73
2022/10/28 03:39:27;;;;;;;26.13;17.60;;;10.10;99.90;;;;;;5071268;28;20086;-70
2022/10/28 03:41:53;;;;;;;30.05;18.48;;;10.10;99.90;;;;;;5071486;28;20021;-72
2022/10/28 03:44:18;;;;;;;30.23;18.52;;;10.00;99.90;;;;;;5071569;28;20047;-72
2022/10/28 03:46:44;;;;;;;33.30;19.60;;;10.00;99.90;;;;;;5071944;28;20024;-72
2022/10/28 03:49:10;;;;;;;26.95;18.52;;;10.00;99.90;;;;;;5068823;28;20021;-71
2022/10/28 03:51:36;;;;;;;31.35;17.60;;;10.00;99.90;;;;;;5068096;28;20025;-71
2022/10/28 03:54:02;;;;;;;30.13;17.38;;;10.00;99.90;;;;;;5067969;28;20024;-74
2022/10/28 03:56:27;;;;;;;30.90;17.73;;;10.10;99.90;;;;;;5068915;28;20375;-75
2022/10/28 03:58:53;;;;;;;22.38;15.38;;;10.10;99.90;;;;;;5071084;28;20441;-74
2022/10/28 04:01:19;;;;;;;25.77;16.60;;;10.10;99.90;;;;;;5071376;28;20479;-71
2022/10/28 04:03:45;;;;;;;32.83;17.48;;;10.10;99.90;;;;;;5071371;28;20020;-73
2022/10/28 04:06:10;;;;;;;23.77;16.02;;;10.10;99.90;;;;;;5070925;28;20450;-72
2022/10/28 04:11:30;;;;;;;26.55;17.63;;;10.10;99.90;;;;;;5155733;22;20559;-72
2022/10/28 04:13:56;;;;;;;31.75;19.20;;;10.10;99.90;;;;;;5063905;28;20028;-71
2022/10/28 04:16:22;;;;;;;23.55;16.55;;;10.00;99.90;;;;;;5045365;28;20046;-74
2022/10/28 04:18:48;;;;;;;26.17;18.23;;;10.10;99.90;;;;;;5030956;28;20037;-72
2022/10/28 04:21:14;;;;;;;34.55;21.30;;;10.10;99.90;;;;;;5055335;28;20021;-76
2022/10/28 04:23:39;;;;;;;56.60;35.38;;;10.20;99.90;;;;;;5049709;28;20115;-71
2022/10/28 04:26:05;;;;;;;62.35;38.50;;;10.20;99.90;;;;;;5048883;28;20049;-76
2022/10/28 04:28:31;;;;;;;31.17;20.80;;;10.20;99.90;;;;;;5065083;28;20033;-71
2022/10/28 04:30:57;;;;;;;23.27;15.40;;;10.20;99.90;;;;;;5048918;28;20474;-71
2022/10/28 04:33:23;;;;;;;23.25;16.52;;;10.10;99.90;;;;;;5066213;28;20039;-72
2022/10/28 04:35:49;;;;;;;27.15;15.27;;;10.00;99.90;;;;;;5068816;28;20045;-73
2022/10/28 04:38:15;;;;;;;27.02;15.40;;;10.00;99.90;;;;;;5055031;28;20020;-71
2022/10/28 04:40:40;;;;;;;23.08;14.57;;;10.00;99.90;;;;;;5060743;28;20097;-71
2022/10/28 04:43:10;;;;;;;28.40;16.98;;;10.00;99.90;;;;;;5063591;28;20028;-71
2022/10/28 04:45:37;;;;;;;24.92;15.25;;;10.00;99.90;;;;;;5070818;28;20056;-72
2022/10/28 04:48:03;;;;;;;28.15;18.08;;;10.00;99.90;;;;;;5070710;28;20039;-76
2022/10/28 04:50:29;;;;;;;25.77;16.70;;;10.00;99.90;;;;;;5070708;28;20546;-72
2022/10/28 04:52:54;;;;;;;31.23;18.70;;;10.00;99.90;;;;;;5070688;28;20021;-72
2022/10/28 04:55:20;;;;;;;31.08;19.85;;;10.00;99.90;;;;;;5070867;28;20032;-73
2022/10/28 04:57:57;;;;;;;29.13;18.60;;;10.00;99.90;;;;;;5070760;28;20455;-74
2022/10/28 05:00:25;;;;;;;28.05;18.77;;;9.90;99.90;;;;;;5070339;28;20068;-75
2022/10/28 05:02:50;;;;;;;31.42;18.02;;;9.90;99.90;;;;;;5070674;28;20024;-75
2022/10/28 05:05:17;;;;;;;28.48;18.38;;;9.90;99.90;;;;;;5070487;28;20028;-74
2022/10/28 05:07:43;;;;;;;34.90;18.75;;;9.90;99.90;;;;;;5070355;28;20594;-74
2022/10/28 05:10:11;;;;;;;28.58;18.02;;;9.80;99.90;;;;;;5063138;28;20538;-73
2022/10/28 05:12:40;;;;;;;29.42;18.13;;;9.80;99.90;;;;;;5050167;28;20402;-75
2022/10/28 05:15:07;;;;;;;31.58;19.67;;;9.80;99.90;;;;;;5050583;28;20041;-72
2022/10/28 05:17:33;;;;;;;28.48;18.70;;;9.80;99.90;;;;;;5050396;28;20017;-73
2022/10/28 05:19:58;;;;;;;38.03;18.95;;;9.80;99.90;;;;;;5050313;28;20055;-71
2022/10/28 05:22:24;;;;;;;31.95;20.40;;;9.80;99.90;;;;;;5050348;28;20029;-72
2022/10/28 05:24:50;;;;;;;29.67;18.83;;;9.80;99.90;;;;;;5050347;28;20131;-72
2022/10/28 05:27:16;;;;;;;27.17;18.75;;;9.90;99.90;;;;;;5050448;28;20027;-74
2022/10/28 05:29:41;;;;;;;31.13;19.92;;;10.00;99.90;;;;;;5050198;28;20036;-72
2022/10/28 05:32:07;;;;;;;28.98;18.65;;;10.00;99.90;;;;;;5045900;28;20025;-72
2022/10/28 05:34:33;;;;;;;37.97;22.65;;;10.00;99.90;;;;;;5015695;28;20463;-72
2022/10/28 05:36:59;;;;;;;43.25;24.38;;;10.00;99.90;;;;;;5012933;28;20026;-73
2022/10/28 05:39:24;;;;;;;34.67;23.98;;;10.00;99.90;;;;;;5012799;28;20065;-71
2022/10/28 05:41:50;;;;;;;36.42;23.98;;;9.90;99.90;;;;;;5009177;28;20071;-71
2022/10/28 05:44:16;;;;;;;45.92;25.92;;;9.90;99.90;;;;;;5008968;28;20041;-72
2022/10/28 05:46:42;;;;;;;44.97;26.17;;;10.00;99.90;;;;;;5010462;28;20025;-72
2022/10/28 05:49:08;;;;;;;62.28;27.92;;;10.00;99.90;;;;;;5016223;28;20078;-72
2022/10/28 05:51:37;;;;;;;47.05;25.95;;;10.00;99.90;;;;;;5022050;28;20052;-72
2022/10/28 05:54:03;;;;;;;54.95;28.33;;;10.10;99.90;;;;;;5049984;28;20033;-72
2022/10/28 05:56:29;;;;;;;55.53;31.27;;;10.20;99.90;;;;;;5035789;28;20037;-72
2022/10/28 05:58:55;;;;;;;55.65;33.58;;;10.40;99.90;;;;;;5037666;28;20037;-71
2022/10/28 06:01:20;;;;;;;54.72;31.00;;;10.50;99.90;;;;;;5035727;28;20033;-71
2022/10/28 06:03:46;;;;;;;56.05;33.13;;;10.50;99.90;;;;;;5019564;28;20060;-72
2022/10/28 06:06:12;;;;;;;49.88;30.75;;;10.60;99.90;;;;;;5044635;28;20116;-74
2022/10/28 06:08:38;;;;;;;45.85;27.50;;;10.70;99.90;;;;;;5035797;28;20025;-72
2022/10/28 06:11:04;;;;;;;44.35;26.90;;;10.90;99.90;;;;;;5036810;28;20124;-72
2022/10/28 06:13:29;;;;;;;55.53;31.80;;;11.10;99.90;;;;;;5041643;28;20072;-72
2022/10/28 06:15:56;;;;;;;51.80;29.63;;;11.20;99.90;;;;;;5053744;28;20111;-71
2022/10/28 06:18:23;;;;;;;37.60;24.73;;;11.40;99.90;;;;;;5049014;28;20155;-73
2022/10/28 06:20:53;;;;;;;39.03;25.05;;;11.60;99.90;;;;;;5041222;28;20025;-72
2022/10/28 06:23:19;;;;;;;38.60;25.70;;;11.70;99.90;;;;;;5053175;28;20403;-72
2022/10/28 06:25:45;;;;;;;43.17;25.23;;;11.90;99.90;;;;;;5043490;28;20032;-72
2022/10/28 06:28:11;;;;;;;40.47;24.52;;;12.00;99.90;;;;;;5053370;28;20041;-71
2022/10/28 06:30:36;;;;;;;33.03;23.15;;;12.10;99.90;;;;;;5053240;28;20096;-72
2022/10/28 06:33:02;;;;;;;35.25;23.52;;;12.20;99.90;;;;;;5053035;28;20035;-71
2022/10/28 06:35:28;;;;;;;33.35;22.60;;;12.20;99.90;;;;;;5052808;28;20033;-72
2022/10/28 06:37:57;;;;;;;31.25;22.17;;;12.30;99.90;;;;;;5038633;28;20076;-73
2022/10/28 06:40:25;;;;;;;28.45;20.42;;;12.40;99.90;;;;;;5053042;28;20043;-72
2022/10/28 06:43:02;;;;;;;27.98;20.65;;;12.60;99.90;;;;;;5052759;28;20021;-72
2022/10/28 06:45:29;;;;;;;27.90;20.15;;;12.70;99.90;;;;;;5028195;28;20490;-72
2022/10/28 06:47:56;;;;;;;27.85;21.05;;;12.80;99.90;;;;;;5052619;28;20036;-70
2022/10/28 06:50:23;;;;;;;26.80;20.88;;;13.00;99.90;;;;;;5052596;28;20017;-71
2022/10/28 06:52:48;;;;;;;29.73;22.63;;;13.10;99.90;;;;;;5052100;28;20033;-72
2022/10/28 06:55:14;;;;;;;35.10;24.48;;;13.10;99.90;;;;;;5048617;28;20052;-71
2022/10/28 06:57:40;;;;;;;49.53;36.08;;;13.30;99.90;;;;;;5042559;28;20070;-71
2022/10/28 07:00:06;;;;;;;45.17;33.95;;;13.20;99.90;;;;;;5052013;28;20048;-71
2022/10/28 07:02:32;;;;;;;36.67;27.75;;;13.30;99.90;;;;;;5052694;28;20021;-73
2022/10/28 07:04:58;;;;;;;35.60;26.17;;;13.10;99.90;;;;;;5051623;28;20083;-72
2022/10/28 07:07:24;;;;;;;32.40;24.23;;;13.40;99.90;;;;;;5052266;28;20087;-73
2022/10/28 07:09:49;;;;;;;39.78;24.92;;;13.50;99.90;;;;;;5039454;28;20057;-72
2022/10/28 07:12:15;;;;;;;39.35;25.20;;;13.60;99.90;;;;;;5045936;28;20109;-71
2022/10/28 07:14:41;;;;;;;37.67;26.17;;;13.80;99.90;;;;;;5041668;28;20415;-72
2022/10/28 07:17:07;;;;;;;36.90;27.33;;;13.90;99.90;;;;;;5042869;28;20021;-72
2022/10/28 07:19:33;;;;;;;33.03;23.00;;;14.10;99.90;;;;;;5025751;28;20067;-72
2022/10/28 07:21:58;;;;;;;29.10;22.13;;;14.10;99.90;;;;;;5036770;28;20025;-72
2022/10/28 07:24:24;;;;;;;34.38;22.92;;;14.20;99.90;;;;;;5052417;28;20025;-74
2022/10/28 07:26:50;;;;;;;33.17;23.33;;;14.10;99.90;;;;;;5052244;28;20025;-72
2022/10/28 07:29:16;;;;;;;38.67;24.55;;;14.20;99.90;;;;;;5040440;28;20021;-72
2022/10/28 07:31:42;;;;;;;30.85;22.67;;;13.90;99.90;;;;;;5032113;28;20458;-72
2022/10/28 07:34:08;;;;;;;31.80;22.13;;;14.00;99.90;;;;;;5040282;28;20033;-72
2022/10/28 07:36:34;;;;;;;31.38;23.70;;;14.30;99.90;;;;;;5042019;28;20032;-72
2022/10/28 07:39:00;;;;;;;30.85;23.38;;;14.40;99.90;;;;;;5033081;28;20033;-72
2022/10/28 07:41:26;;;;;;;41.22;24.05;;;14.60;99.90;;;;;;5041895;28;20029;-72
2022/10/28 07:43:52;;;;;;;33.20;23.50;;;14.70;99.90;;;;;;5029281;28;20524;-73
2022/10/28 07:46:19;;;;;;;34.10;25.30;;;14.80;99.90;;;;;;5031823;28;20030;-77
2022/10/28 07:48:45;;;;;;;37.67;24.50;;;14.90;99.90;;;;;;5051202;28;20032;-76
2022/10/28 07:51:13;;;;;;;31.30;22.85;;;15.10;99.90;;;;;;5041255;28;20021;-73
2022/10/28 07:53:39;;;;;;;35.25;22.52;;;15.20;99.90;;;;;;5050102;28;20390;-74
2022/10/28 07:56:08;;;;;;;32.05;21.80;;;15.20;99.90;;;;;;5040440;28;20053;-72
2022/10/28 07:58:35;;;;;;;35.15;21.40;;;15.40;99.90;;;;;;5043078;28;20072;-77
2022/10/28 08:01:06;;;;;;;32.28;21.20;;;15.40;99.90;;;;;;5030638;28;20041;-77
2022/10/28 08:03:32;;;;;;;36.78;19.60;;;15.50;99.90;;;;;;5046026;28;20116;-73
2022/10/28 08:06:08;;;;;;;37.20;20.45;;;15.60;99.90;;;;;;5044111;28;20159;-72
2022/10/28 08:08:36;;;;;;;32.83;20.60;;;15.60;99.90;;;;;;5050687;28;20127;-72
2022/10/28 08:11:13;;;;;;;31.52;20.73;;;15.70;99.90;;;;;;5041953;28;20076;-73
2022/10/28 08:13:39;;;;;;;29.45;20.85;;;15.70;99.90;;;;;;5032430;28;20065;-72
2022/10/28 08:16:05;;;;;;;37.75;25.17;;;15.60;99.90;;;;;;5050894;28;20032;-75
2022/10/28 08:18:31;;;;;;;39.72;23.48;;;15.10;99.90;;;;;;5045992;28;20048;-73
2022/10/28 08:21:01;;;;;;;40.28;24.02;;;15.10;99.90;;;;;;5050731;28;20021;-73
2022/10/28 08:23:27;;;;;;;37.47;25.50;;;15.40;99.90;;;;;;5050671;28;20021;-72
2022/10/28 08:25:54;;;;;;;36.10;25.60;;;15.50;99.90;;;;;;5050903;28;20379;-73
2022/10/28 08:28:20;;;;;;;40.13;26.30;;;15.50;99.90;;;;;;5050787;28;20032;-72
2022/10/28 08:30:46;;;;;;;39.83;27.15;;;15.70;99.90;;;;;;5036497;28;20021;-73
2022/10/28 08:33:13;;;;;;;38.50;26.48;;;15.80;99.90;;;;;;5050425;28;20040;-72
2022/10/28 08:35:39;;;;;;;42.53;27.63;;;16.00;99.90;;;;;;5036297;28;20021;-74
2022/10/28 08:38:05;;;;;;;43.75;29.27;;;16.00;99.90;;;;;;5036477;28;20021;-73
2022/10/28 08:40:45;;;;;;;41.72;25.33;;;16.00;99.90;;;;;;5035932;28;20057;-72
2022/10/28 08:43:56;;;;;;;44.67;29.25;;;15.90;99.90;;;;;;5050730;28;20029;-72
2022/10/28 08:46:36;;;;;;;34.17;23.58;;;16.20;99.90;;;;;;5050582;28;20071;-72
2022/10/28 08:49:11;;;;;;;40.00;24.95;;;16.30;99.90;;;;;;5033763;28;20297;-73
2022/10/28 08:52:15;;;;;;;31.65;23.23;;;16.30;99.90;;;;;;5040473;28;20451;-73
2022/10/28 08:54:49;;;;;;;36.90;23.30;;;16.40;99.90;;;;;;5032965;28;20493;-73
2022/10/28 08:57:29;;;;;;;29.95;24.10;;;16.50;99.90;;;;;;5050179;28;20021;-73
2022/10/28 08:59:55;;;;;;;33.65;23.73;;;16.50;99.90;;;;;;5045443;28;20033;-72
2022/10/28 09:02:27;;;;;;;34.00;26.25;;;16.70;99.90;;;;;;5030628;28;20018;-72
2022/10/28 09:05:22;;;;;;;36.08;24.80;;;16.80;99.90;;;;;;5018082;28;20021;-72
2022/10/28 09:07:49;;;;;;;30.65;24.80;;;16.70;99.90;;;;;;5033281;28;20025;-72
2022/10/28 09:10:19;;;;;;;40.90;24.33;;;17.00;99.90;;;;;;5042979;28;20691;-73
2022/10/28 09:13:04;;;;;;;36.22;24.58;;;17.10;99.90;;;;;;5042590;28;20033;-72
2022/10/28 09:16:08;;;;;;;31.30;24.15;;;17.30;99.90;;;;;;5033099;28;20041;-72
2022/10/28 09:18:52;;;;;;;36.95;26.23;;;17.40;99.90;;;;;;5026464;28;20100;-72
2022/10/28 09:21:32;;;;;;;29.40;22.55;;;17.60;99.90;;;;;;5027212;28;20034;-73
2022/10/28 09:24:05;;;;;;;34.60;23.42;;;17.80;99.90;;;;;;5044477;28;20032;-74
2022/10/28 09:26:36;;;;;;;31.70;24.63;;;17.80;99.90;;;;;;5054397;28;20412;-73
2022/10/28 09:29:15;;;;;;;32.07;24.60;;;18.00;99.90;;;;;;5043895;28;20041;-72
2022/10/28 09:31:46;;;;;;;33.30;25.23;;;17.90;99.90;;;;;;5048488;28;20025;-73
2022/10/28 09:34:47;;;;;;;35.10;26.67;;;17.90;99.90;;;;;;5052028;28;20475;-73
2022/10/28 09:37:26;;;;;;;35.03;25.63;;;17.90;99.90;;;;;;4982651;28;20063;-73
2022/10/28 09:39:58;;;;;;;36.67;25.77;;;17.80;99.90;;;;;;4986321;28;20206;-72
2022/10/28 09:42:31;;;;;;;32.95;25.38;;;18.00;99.90;;;;;;4983042;28;20026;-72
2022/10/28 09:45:01;;;;;;;;;;;18.00;99.90;;;;;;4992325;28;20077;-72
2022/10/28 09:47:33;;;;;;;32.00;24.30;;;18.10;99.90;;;;;;4992472;28;19917;-73
2022/10/28 09:50:06;;;;;;;33.13;24.70;;;18.20;99.90;;;;;;4986246;28;20054;-73
2022/10/28 09:52:52;;;;;;;;;;;18.30;99.90;;;;;;4973030;28;20045;-73
2022/10/28 09:55:22;;;;;;;30.52;22.60;;;18.50;99.90;;;;;;4990776;28;19944;-72
2022/10/28 09:57:48;;;;;;;33.97;24.48;;;18.40;99.90;;;;;;4991796;28;20034;-73
2022/10/28 10:00:15;;;;;;;30.90;24.55;;;18.60;99.90;;;;;;4991833;28;20046;-74
2022/10/28 10:02:43;;;;;;;34.58;22.85;;;18.70;99.90;;;;;;4991492;28;20034;-73
2022/10/28 10:05:14;;;;;;;31.35;23.00;;;18.80;99.90;;;;;;4991382;28;20113;-73
2022/10/28 10:07:46;;;;;;;33.63;23.53;;;18.90;99.90;;;;;;4988761;28;20037;-72
2022/10/28 10:10:32;;;;;;;34.90;25.05;;;18.80;99.90;;;;;;4986227;28;20061;-73
2022/10/28 10:13:01;;;;;;;34.58;22.50;;;18.90;99.90;;;;;;5016223;28;20056;-74
2022/10/28 10:15:35;;;;;;;31.48;22.13;;;18.90;99.90;;;;;;5038326;28;20073;-72
2022/10/28 10:18:05;;;;;;;29.55;21.38;;;19.00;99.90;;;;;;5044952;28;20036;-73
2022/10/28 10:20:51;;;;;;;32.45;23.48;;;19.10;99.90;;;;;;5050670;28;20068;-73
2022/10/28 10:23:25;;;;;;;30.58;22.33;;;19.20;99.90;;;;;;5034067;28;20387;-73
2022/10/28 10:25:59;;;;;;;37.38;24.55;;;19.30;99.90;;;;;;5042028;28;20029;-74
2022/10/28 10:28:26;;;;;;;31.92;21.85;;;19.30;99.90;;;;;;5032422;28;20072;-77
2022/10/28 10:30:58;;;;;;;29.65;21.00;;;19.40;99.90;;;;;;5027597;28;20026;-74
2022/10/28 10:33:37;;;;;;;33.15;22.73;;;19.40;99.90;;;;;;5045655;28;20375;-73
2022/10/28 10:36:13;;;;;;;32.28;23.63;;;19.50;99.90;;;;;;5040394;28;20026;-74
2022/10/28 10:38:55;;;;;;;36.22;23.40;;;19.40;99.90;;;;;;5038308;28;20090;-73
2022/10/28 10:41:39;;;;;;;39.07;24.93;;;19.40;99.90;;;;;;5035330;28;20478;-74
2022/10/28 10:44:30;;;;;;;29.58;23.35;;;19.60;99.90;;;;;;5040659;28;20554;-73
2022/10/28 10:46:59;;;;;;;34.55;27.58;;;19.60;99.90;;;;;;5020449;28;20084;-72
2022/10/28 10:49:26;;;;;;;37.28;24.52;;;19.40;99.90;;;;;;5049759;28;20017;-71
2022/10/28 10:51:57;;;;;;;34.63;21.13;;;19.70;99.90;;;;;;5046777;28;20037;-72
2022/10/28 10:54:26;;;;;;;32.27;20.20;;;19.70;99.90;;;;;;5048134;28;20025;-72
2022/10/28 10:56:52;;;;;;;27.95;21.25;;;19.80;99.90;;;;;;5044979;28;20092;-72
2022/10/28 10:59:27;;;;;;;30.67;21.70;;;19.80;99.90;;;;;;5031924;28;20041;-73
2022/10/28 11:01:55;;;;;;;32.13;21.20;;;19.90;99.90;;;;;;5033987;28;20093;-73
2022/10/28 11:04:24;;;;;;;27.52;18.30;;;19.90;99.90;;;;;;5028532;28;20025;-72
2022/10/28 11:06:55;;;;;;;27.15;16.77;;;20.00;99.90;;;;;;5043798;28;20100;-72
2022/10/28 11:09:30;;;;;;;29.58;17.90;;;20.00;99.90;;;;;;5043822;28;20028;-72
2022/10/28 11:11:56;;;;;;;34.17;21.42;;;19.90;99.90;;;;;;5052008;28;20041;-70
2022/10/28 11:14:27;;;;;;;25.67;17.75;;;20.00;99.90;;;;;;5033720;28;20026;-72
2022/10/28 11:16:55;;;;;;;25.48;17.05;;;20.00;99.90;;;;;;5034911;28;20463;-73
2022/10/28 11:19:35;;;;;;;24.20;17.52;;;20.00;99.90;;;;;;5033412;28;20441;-72
2022/10/28 11:22:16;;;;;;;25.27;17.75;;;20.00;99.90;;;;;;5040197;28;20406;-72
2022/10/28 11:24:44;;;;;;;28.88;17.33;;;20.00;99.90;;;;;;5037643;28;20030;-75
2022/10/28 11:27:31;;;;;;;23.52;16.67;;;20.00;99.90;;;;;;5032905;28;20030;-72
2022/10/28 11:29:59;;;;;;;26.67;17.05;;;20.00;99.90;;;;;;5022225;28;20108;-74
2022/10/28 11:32:34;;;;;;;25.70;17.98;;;20.00;99.90;;;;;;5038574;28;20025;-73
2022/10/28 11:35:09;;;;;;;26.95;17.63;;;20.20;99.90;;;;;;5038569;28;20029;-71
2022/10/28 11:37:53;;;;;;;26.20;17.63;;;20.20;99.90;;;;;;5024421;28;20040;-74
2022/10/28 11:40:37;;;;;;;32.13;17.40;;;20.40;99.90;;;;;;5034304;28;20044;-76
2022/10/28 11:43:11;;;;;;;27.40;16.10;;;20.40;99.90;;;;;;5011584;28;20025;-75
2022/10/28 11:45:52;;;;;;;22.10;14.63;;;20.40;99.90;;;;;;5017332;28;20040;-72
2022/10/28 11:48:42;;;;;;;21.08;14.95;;;20.40;99.90;;;;;;5029006;28;20462;-75
2022/10/28 11:51:40;;;;;;;20.95;14.52;;;20.40;99.90;;;;;;5027600;28;20064;-73
2022/10/28 11:54:29;;;;;;;20.05;12.32;;;20.50;99.90;;;;;;5021207;28;20044;-72
2022/10/28 11:57:04;;;;;;;24.30;13.18;;;20.50;99.90;;;;;;5025577;28;20414;-72
2022/10/28 11:59:33;;;;;;;18.23;12.40;;;20.60;99.90;;;;;;5039039;28;20053;-72
2022/10/28 12:02:23;;;;;;;18.85;13.27;;;20.50;99.90;;;;;;5045287;28;20036;-73
2022/10/28 12:04:57;;;;;;;21.60;12.75;;;20.50;99.90;;;;;;5049586;28;20045;-72
2022/10/28 12:07:45;;;;;;;19.85;10.77;;;20.70;99.90;;;;;;5021396;28;20056;-72
2022/10/28 12:10:49;;;;;;;18.58;10.20;;;20.70;99.90;;;;;;5013213;28;20034;-71
2022/10/28 12:13:43;;;;;;;12.85;7.13;;;20.70;99.90;;;;;;5015784;28;20076;-73
2022/10/28 12:16:15;;;;;;;13.57;8.18;;;20.70;99.90;;;;;;5032836;28;20732;-73
2022/10/28 12:19:07;;;;;;;17.23;9.30;;;20.80;99.90;;;;;;5040978;28;20063;-72
2022/10/28 12:21:38;;;;;;;14.27;8.05;;;20.80;99.90;;;;;;5022751;28;20044;-73
2022/10/28 12:24:14;;;;;;;16.40;8.82;;;20.80;99.90;;;;;;5036949;28;20017;-72
2022/10/28 12:26:51;;;;;;;18.77;10.50;;;20.80;99.90;;;;;;5028847;28;20030;-72
2022/10/28 12:29:21;;;;;;;15.48;8.75;;;20.80;99.90;;;;;;5033833;28;20026;-73
2022/10/28 12:31:54;;;;;;;28.90;9.95;;;20.70;99.90;;;;;;5035204;28;20029;-72
2022/10/28 12:34:28;;;;;;;14.90;9.32;;;20.80;99.90;;;;;;5042515;28;20067;-72
2022/10/28 12:37:03;;;;;;;18.08;10.55;;;20.80;99.90;;;;;;5039529;28;20034;-73
2022/10/28 12:39:34;;;;;;;18.40;11.73;;;20.80;99.90;;;;;;5044902;28;20053;-72
2022/10/28 12:42:15;;;;;;;15.52;10.25;;;20.90;99.90;;;;;;5035901;28;20029;-73
2022/10/28 12:44:42;;;;;;;18.10;10.90;;;20.90;99.90;;;;;;5049076;28;20021;-74
2022/10/28 12:47:32;;;;;;;20.10;9.55;;;20.90;99.90;;;;;;5011044;28;20018;-72
2022/10/28 12:50:27;;;;;;;14.90;9.38;;;21.00;99.90;;;;;;5009298;28;20029;-76
2022/10/28 12:53:19;;;;;;;21.30;10.90;;;20.90;99.90;;;;;;5005220;28;20056;-73
2022/10/28 12:55:57;;;;;;;20.38;11.18;;;20.90;99.90;;;;;;5014421;28;20033;-74